Time;durP1;ratioP1;P1;durP2;ratioP2;P2;SDS_P1;SDS_P2;PMS_P1;PMS_P2;Temp;Humidity;BMP_temperature;BMP_pressure;BME280_temperature;BME280_humidity;BME280_pressure;Samples;Min_cycle;Max_cycle;Signal;HPM_P1;HPM_P2
2023/01/13 00:01:23;;;;;;;;;;;;;;;;;;;;;
2023/01/13 00:03:42;;;;;;;4.73;3.10;;;7.80;99.90;7.40;99234;;;;570609;246;24115;-83
2023/01/13 00:06:12;;;;;;;3.77;2.43;;;7.80;99.90;7.30;99230;;;;571596;251;24151;-84
2023/01/13 00:08:51;;;;;;;7.33;2.50;;;7.70;99.90;7.20;99234;;;;571770;251;24144;-83
2023/01/13 00:11:13;;;;;;;2.83;2.50;;;7.70;99.90;7.20;99229;;;;570266;251;24173;-83
2023/01/13 00:13:41;;;;;;;3.87;3.13;;;7.70;99.90;7.20;99220;;;;571714;251;24122;-85
2023/01/13 00:16:09;;;;;;;8.03;3.20;;;7.60;99.90;7.10;99227;;;;578491;248;24117;-82
2023/01/13 00:18:36;;;;;;;5.17;2.93;;;7.60;99.90;7.10;99224;;;;578919;248;24117;-85
2023/01/13 00:21:06;;;;;;;6.03;4.00;;;7.60;99.90;7.10;99220;;;;573444;248;35249;-84
2023/01/13 00:23:34;;;;;;;4.47;3.47;;;7.60;99.90;7.20;99222;;;;580264;247;24090;-84
2023/01/13 00:26:02;;;;;;;5.80;3.60;;;7.60;99.90;7.30;99217;;;;580076;247;24109;-84
2023/01/13 00:28:31;;;;;;;5.00;3.33;;;7.80;99.90;7.30;99206;;;;577358;248;24109;-85
2023/01/13 00:31:07;;;;;;;4.90;2.63;;;7.80;99.90;7.40;99203;;;;580292;247;24105;-83
2023/01/13 00:33:38;;;;;;;2.80;2.60;;;7.80;99.90;7.50;99200;;;;580003;247;24127;-83
2023/01/13 00:36:09;;;;;;;4.07;3.17;;;7.90;99.90;7.50;99202;;;;580120;247;24140;-83
2023/01/13 00:38:36;;;;;;;3.90;2.90;;;8.00;99.90;7.50;99195;;;;579360;247;24141;-84
2023/01/13 00:41:04;;;;;;;3.83;3.00;;;7.90;99.90;7.50;99190;;;;579533;247;24125;-84
2023/01/13 00:43:32;;;;;;;3.80;3.10;;;8.00;99.90;7.40;99194;;;;579488;247;24108;-84
2023/01/13 00:46:01;;;;;;;5.03;3.00;;;7.90;99.90;7.40;99181;;;;579389;247;24101;-85
2023/01/13 00:48:28;;;;;;;3.70;3.33;;;7.90;99.90;7.30;99176;;;;579492;247;24094;-83
2023/01/13 00:51:01;;;;;;;4.73;3.30;;;7.80;99.90;7.20;99187;;;;579502;247;24127;-84
2023/01/13 00:53:29;;;;;;;3.83;3.10;;;7.70;99.90;7.20;99184;;;;579080;247;24115;-83
2023/01/13 00:56:00;;;;;;;5.93;3.20;;;7.70;99.90;7.10;99177;;;;571632;245;24101;-84
2023/01/13 00:58:28;;;;;;;2.87;2.67;;;7.60;99.90;7.10;99164;;;;581395;246;24070;-84
2023/01/13 01:00:56;;;;;;;3.67;3.27;;;7.60;99.90;7.10;99170;;;;571215;246;24169;-83
2023/01/13 01:03:28;;;;;;;3.70;3.07;;;7.60;99.90;7.20;99161;;;;570842;251;24104;-84
2023/01/13 01:05:52;;;;;;;3.73;3.43;;;7.60;99.90;7.20;99162;;;;570876;245;24148;-84
2023/01/13 01:08:20;;;;;;;3.37;2.80;;;7.70;99.90;7.30;99157;;;;571177;251;24147;-84
2023/01/13 01:10:48;;;;;;;3.47;3.17;;;7.70;99.90;7.30;99152;;;;571403;251;24111;-85
2023/01/13 01:13:16;;;;;;;3.30;2.60;;;7.70;99.90;7.30;99152;;;;572180;249;24177;-85
2023/01/13 01:15:47;;;;;;;4.83;3.20;;;7.80;99.90;7.40;99144;;;;572671;250;24150;-84
2023/01/13 01:18:11;;;;;;;5.67;3.67;;;7.80;99.90;7.50;99146;;;;571731;251;24190;-83
2023/01/13 01:20:39;;;;;;;4.30;3.90;;;7.90;99.90;7.50;99146;;;;571941;250;24107;-84
2023/01/13 01:23:07;;;;;;;7.50;3.80;;;8.00;99.90;7.50;99141;;;;571999;250;24111;-83
2023/01/13 01:25:35;;;;;;;4.17;3.77;;;8.00;99.90;7.60;99143;;;;572300;245;24138;-82
2023/01/13 01:28:03;;;;;;;4.17;3.47;;;8.10;99.90;7.60;99149;;;;572204;251;24147;-82
2023/01/13 01:30:31;;;;;;;3.57;3.27;;;8.10;99.90;7.70;99134;;;;572234;246;24138;-83
2023/01/13 01:32:58;;;;;;;5.80;3.83;;;8.20;99.90;7.80;99132;;;;571906;245;24143;-82
2023/01/13 01:35:26;;;;;;;3.97;3.60;;;8.20;99.90;7.80;99132;;;;571626;245;24103;-82
2023/01/13 01:37:59;;;;;;;4.40;4.00;;;8.30;99.90;7.80;99126;;;;571501;245;24230;-82
2023/01/13 01:40:22;;;;;;;4.33;3.87;;;8.30;99.90;7.80;99118;;;;570755;251;24136;-84
2023/01/13 01:45:36;;;;;;;3.67;3.37;;;8.40;99.90;7.90;99113;;;;571935;248;24180;-84
2023/01/13 01:48:04;;;;;;;9.40;4.40;;;8.40;99.90;7.90;99107;;;;571477;245;24120;-82
2023/01/13 01:50:35;;;;;;;5.53;4.20;;;8.40;99.90;7.90;99111;;;;571339;251;24130;-82
2023/01/13 01:53:08;;;;;;;4.50;4.10;;;8.40;99.90;8.00;99112;;;;571004;245;24123;-82
2023/01/13 01:55:36;;;;;;;5.10;3.03;;;8.40;99.90;8.00;99097;;;;571357;250;24106;-83
2023/01/13 01:58:07;;;;;;;4.20;3.90;;;8.50;99.90;8.00;99097;;;;571882;251;24118;-81
2023/01/13 02:00:35;;;;;;;6.60;4.47;;;8.50;99.90;8.00;99092;;;;581552;246;24146;-83
2023/01/13 02:03:06;;;;;;;4.97;4.50;;;8.50;99.90;8.00;99094;;;;571178;251;24135;-82
2023/01/13 02:05:33;;;;;;;4.87;3.67;;;8.50;99.90;8.00;99089;;;;570884;251;24105;-81
2023/01/13 02:08:03;;;;;;;5.80;4.70;;;8.50;99.90;8.10;99092;;;;571315;245;24118;-82
2023/01/13 02:10:27;;;;;;;6.43;4.40;;;8.50;99.90;8.10;99089;;;;570553;251;24111;-81
2023/01/13 02:12:55;;;;;;;5.60;3.87;;;8.60;99.90;8.10;99087;;;;571443;245;24106;-84
2023/01/13 02:15:25;;;;;;;3.63;3.33;;;8.60;99.90;8.10;99082;;;;571476;246;24154;-82
2023/01/13 02:18:14;;;;;;;5.63;3.53;;;8.60;99.90;8.10;99079;;;;571098;251;24136;-82
2023/01/13 02:20:47;;;;;;;3.43;3.13;;;8.50;99.90;8.10;99072;;;;571673;246;24159;-81
2023/01/13 02:26:37;;;;;;;4.00;3.20;;;8.50;99.90;8.00;99071;;;;572694;250;24106;-84
2023/01/13 02:32:46;;;;;;;3.77;2.80;;;8.50;99.90;7.90;99066;;;;567622;253;24184;-83
2023/01/13 02:35:19;;;;;;;3.57;2.83;;;8.40;99.90;7.90;99052;;;;588353;241;24110;-83
2023/01/13 02:37:47;;;;;;;4.17;2.70;;;8.40;99.90;7.90;99057;;;;593272;235;24033;-84
2023/01/13 02:40:36;;;;;;;3.53;3.23;;;8.40;99.90;7.90;99054;;;;597474;235;24066;-85
2023/01/13 02:46:27;;;;;;;3.73;3.00;;;8.30;99.90;7.80;99050;;;;597776;235;24082;-84
2023/01/13 02:48:55;;;;;;;3.60;3.03;;;8.30;99.90;7.80;99050;;;;597253;238;24079;-83
2023/01/13 02:51:22;;;;;;;3.03;2.80;;;8.20;99.90;7.80;99032;;;;597185;236;24107;-84
2023/01/13 02:54:08;;;;;;;3.33;3.03;;;8.20;99.90;7.80;99038;;;;597150;238;24071;-85
2023/01/13 02:56:36;;;;;;;3.47;3.17;;;8.20;99.90;7.80;99035;;;;597177;240;24071;-83
2023/01/13 02:59:04;;;;;;;4.10;3.70;;;8.20;99.90;7.80;99040;;;;597044;240;24088;-83
2023/01/13 03:01:35;;;;;;;4.77;2.90;;;8.20;99.90;7.80;99031;;;;596926;235;24162;-84
2023/01/13 03:03:59;;;;;;;5.77;3.20;;;8.20;99.90;7.70;99021;;;;596785;240;24045;-86
2023/01/13 03:06:39;;;;;;;2.93;2.73;;;8.20;99.90;7.70;99023;;;;597189;239;24185;-84
2023/01/13 03:09:10;;;;;;;3.40;3.10;;;8.20;99.90;7.70;99030;;;;596966;240;24054;-83
2023/01/13 03:11:43;;;;;;;2.73;2.53;;;8.20;99.90;7.70;99023;;;;596725;240;24057;-82
2023/01/13 03:14:35;;;;;;;3.17;2.80;;;8.20;99.90;7.70;99019;;;;596251;240;24089;-83
2023/01/13 03:17:21;;;;;;;2.47;2.27;;;8.20;99.90;7.70;99022;;;;589590;235;24077;-84
2023/01/13 03:19:55;;;;;;;2.63;2.20;;;8.10;99.90;7.70;99020;;;;596987;238;24110;-84
2023/01/13 03:22:23;;;;;;;2.10;2.00;;;8.10;99.90;7.70;99020;;;;596851;235;24085;-84
2023/01/13 03:25:00;;;;;;;3.10;2.77;;;8.10;99.90;7.70;99017;;;;596170;240;24050;-84
2023/01/13 03:27:39;;;;;;;2.80;2.60;;;8.10;99.90;7.70;99022;;;;597175;240;24053;-84
2023/01/13 03:30:20;;;;;;;2.10;1.73;;;8.10;99.90;7.70;99019;;;;597355;240;24066;-82
2023/01/13 03:32:53;;;;;;;2.03;1.73;;;8.10;99.90;7.70;99014;;;;597497;238;24064;-84
2023/01/13 03:35:26;;;;;;;2.20;2.00;;;8.10;99.90;7.70;99008;;;;597002;238;24046;-83
2023/01/13 03:38:00;;;;;;;2.13;1.93;;;8.10;99.90;7.70;99010;;;;598801;238;24068;-83
2023/01/13 03:40:37;;;;;;;2.07;1.80;;;8.10;99.90;7.70;99012;;;;596183;235;24041;-86
2023/01/13 03:45:51;;;;;;;1.40;1.30;;;8.10;99.90;7.70;99012;;;;598079;240;24094;-84
2023/01/13 03:48:19;;;;;;;1.53;1.43;;;8.20;99.90;7.70;99003;;;;597257;240;24053;-83
2023/01/13 03:50:51;;;;;;;1.57;1.47;;;8.20;99.90;7.70;99008;;;;597515;238;24050;-85
2023/01/13 03:53:28;;;;;;;1.77;1.30;;;8.10;99.90;7.70;99005;;;;597634;238;24089;-83
2023/01/13 03:56:04;;;;;;;2.50;2.30;;;8.20;99.90;7.70;99005;;;;591297;240;45821;-84
2023/01/13 03:58:33;;;;;;;1.50;1.50;;;8.20;99.90;7.70;99006;;;;596860;240;24045;-83
2023/01/13 04:01:34;;;;;;;1.97;1.77;;;8.20;99.90;7.80;99003;;;;597216;240;24097;-83
2023/01/13 04:04:07;;;;;;;2.23;1.70;;;8.20;99.90;7.80;99004;;;;597267;235;24059;-84
2023/01/13 04:06:49;;;;;;;1.77;1.67;;;8.20;99.90;7.80;99005;;;;596477;240;24051;-84
2023/01/13 04:09:35;;;;;;;1.60;1.50;;;8.20;99.90;7.80;98999;;;;597834;238;24057;-84
2023/01/13 04:12:17;;;;;;;1.67;1.50;;;8.20;99.90;7.80;98995;;;;597372;238;24100;-85
2023/01/13 04:14:55;;;;;;;1.37;1.30;;;8.20;99.90;7.80;98998;;;;596993;240;24079;-82
2023/01/13 04:17:13;;;;;;;1.80;1.70;;;8.20;99.90;7.80;98989;;;;596078;240;24077;-83
2023/01/13 04:19:41;;;;;;;2.30;1.53;;;8.20;99.90;7.80;98996;;;;597273;235;24053;-85
2023/01/13 04:22:12;;;;;;;2.33;1.43;;;8.30;99.90;7.80;98985;;;;597160;238;24050;-83
2023/01/13 04:24:37;;;;;;;1.43;1.37;;;8.30;99.90;7.80;98980;;;;597230;240;24089;-84
2023/01/13 04:27:05;;;;;;;1.67;1.57;;;8.30;99.90;7.90;98981;;;;597081;238;24096;-82
2023/01/13 04:29:35;;;;;;;1.33;1.33;;;8.30;99.90;7.80;98987;;;;597504;238;24056;-82
2023/01/13 04:32:04;;;;;;;1.80;1.70;;;8.30;99.90;7.80;98982;;;;597560;238;24092;-83
2023/01/13 04:34:32;;;;;;;1.30;1.20;;;8.30;99.90;7.80;98980;;;;597038;238;24103;-83
2023/01/13 04:37:01;;;;;;;1.70;1.60;;;8.30;99.90;7.80;98979;;;;597369;238;24089;-81
2023/01/13 04:39:29;;;;;;;1.23;1.23;;;8.30;99.90;7.80;98985;;;;597219;235;24038;-82
2023/01/13 04:42:01;;;;;;;1.70;1.60;;;8.30;99.90;7.80;98986;;;;597256;238;24075;-83
2023/01/13 04:44:29;;;;;;;1.83;1.73;;;8.30;99.90;7.80;98982;;;;596668;240;24078;-82
2023/01/13 04:46:53;;;;;;;1.30;1.30;;;8.30;99.90;7.90;98987;;;;596594;235;24041;-82
2023/01/13 04:49:23;;;;;;;1.67;1.60;;;8.30;99.90;7.90;98984;;;;588369;240;24043;-83
2023/01/13 04:51:51;;;;;;;1.67;1.57;;;8.30;99.90;7.90;98985;;;;587817;240;24089;-83
2023/01/13 04:54:20;;;;;;;1.47;1.47;;;8.30;99.90;7.90;98986;;;;587632;240;24055;-83
2023/01/13 04:56:48;;;;;;;1.50;1.40;;;8.30;99.90;7.90;98991;;;;587500;240;24125;-81
2023/01/13 04:59:16;;;;;;;1.57;1.47;;;8.30;99.90;7.90;98988;;;;587325;240;24065;-82
2023/01/13 05:01:43;;;;;;;1.57;1.50;;;8.30;99.90;7.90;98991;;;;587423;240;24137;-83
2023/01/13 05:04:14;;;;;;;1.83;1.70;;;8.30;99.90;7.90;98982;;;;587493;240;24037;-81
2023/01/13 05:06:40;;;;;;;2.23;1.80;;;8.30;99.90;7.90;98983;;;;587131;240;24061;-83
2023/01/13 05:09:11;;;;;;;2.33;1.90;;;8.30;99.90;7.90;98990;;;;587303;240;24053;-82
2023/01/13 05:17:08;;;;;;;1.30;1.30;;;8.30;99.90;7.90;98979;;;;596725;240;24062;-82
2023/01/13 05:19:38;;;;;;;2.37;1.67;;;8.30;99.90;7.90;98987;;;;587216;240;24087;-83
2023/01/13 05:27:35;;;;;;;1.80;1.70;;;8.30;99.90;7.90;98990;;;;587036;235;24130;-83
2023/01/13 05:30:03;;;;;;;1.77;1.67;;;8.30;99.90;7.90;98989;;;;587377;240;24061;-82
2023/01/13 05:32:31;;;;;;;1.73;1.63;;;8.30;99.90;7.90;98987;;;;572383;239;24131;-77
2023/01/13 05:34:59;;;;;;;1.83;1.73;;;8.30;99.90;7.90;98993;;;;576758;246;24181;-77
2023/01/13 05:37:27;;;;;;;1.90;1.80;;;8.30;99.90;7.90;98995;;;;576437;246;24087;-77
2023/01/13 05:45:27;;;;;;;1.40;1.40;;;8.30;99.90;7.80;98993;;;;576175;248;24121;-77
2023/01/13 05:47:55;;;;;;;2.13;1.93;;;8.30;99.90;7.80;98998;;;;567668;248;24132;-76
2023/01/13 05:50:23;;;;;;;1.30;1.20;;;8.30;99.90;7.80;99004;;;;567726;248;24118;-77
2023/01/13 05:52:51;;;;;;;1.43;1.33;;;8.30;99.90;7.80;99003;;;;576242;246;24092;-76
2023/01/13 05:55:19;;;;;;;1.60;1.50;;;8.20;99.90;7.80;99007;;;;567498;248;24175;-77
2023/01/13 05:57:47;;;;;;;1.40;1.40;;;8.20;99.90;7.80;99009;;;;578300;246;24108;-77
2023/01/13 06:00:16;;;;;;;1.80;1.70;;;8.30;99.90;7.80;99009;;;;568478;246;46181;-77
2023/01/13 06:02:44;;;;;;;1.60;1.57;;;8.30;99.90;7.80;99018;;;;573425;246;24157;-78
2023/01/13 06:05:12;;;;;;;1.83;1.70;;;8.30;99.90;7.90;99016;;;;573005;246;24090;-80
2023/01/13 06:07:39;;;;;;;1.60;1.50;;;8.30;99.90;7.90;99012;;;;573016;246;24139;-79
2023/01/13 06:10:12;;;;;;;1.33;1.27;;;8.30;99.90;7.90;99016;;;;572833;246;24099;-76
2023/01/13 06:12:36;;;;;;;1.40;1.30;;;8.30;99.90;7.90;99025;;;;572401;246;24156;-77
2023/01/13 06:15:08;;;;;;;1.10;1.10;;;8.40;99.90;7.90;99037;;;;581675;243;24153;-77
2023/01/13 06:17:32;;;;;;;1.10;1.10;;;8.40;99.90;8.00;99042;;;;572186;246;24110;-78
2023/01/13 06:20:00;;;;;;;1.10;1.10;;;8.40;99.90;8.00;99040;;;;572683;246;24170;-77
2023/01/13 06:22:31;;;;;;;1.90;1.80;;;8.40;99.90;8.00;99036;;;;572596;246;24099;-78
2023/01/13 06:24:56;;;;;;;1.63;1.27;;;8.40;99.90;8.00;99037;;;;567384;246;35304;-78
2023/01/13 06:27:27;;;;;;;1.90;1.30;;;8.50;99.90;8.00;99055;;;;572644;246;24083;-76
2023/01/13 06:29:52;;;;;;;1.10;1.00;;;8.50;99.90;8.10;99053;;;;572227;246;24117;-76
2023/01/13 06:32:20;;;;;;;1.00;1.00;;;8.50;99.90;8.10;99042;;;;572908;246;24099;-77
2023/01/13 06:34:48;;;;;;;1.87;1.20;;;8.50;99.90;8.10;99041;;;;572506;246;24165;-77
2023/01/13 06:37:19;;;;;;;1.27;1.17;;;8.60;99.90;8.10;99048;;;;572397;246;24181;-78
2023/01/13 06:39:43;;;;;;;1.20;1.20;;;8.60;99.90;8.10;99049;;;;572424;246;24155;-78
2023/01/13 06:44:57;;;;;;;1.30;1.20;;;8.50;99.90;8.10;99058;;;;572787;246;24108;-79
2023/01/13 06:47:25;;;;;;;1.30;1.20;;;8.50;99.90;8.00;99054;;;;580999;246;24096;-78
2023/01/13 06:49:53;;;;;;;6.00;1.00;;;8.50;99.90;8.10;99061;;;;572356;246;24102;-78
2023/01/13 06:52:26;;;;;;;1.40;1.30;;;8.50;99.90;8.10;99056;;;;572187;246;24159;-79
2023/01/13 06:54:56;;;;;;;1.30;1.20;;;8.50;99.90;8.10;99057;;;;572294;246;24111;-79
2023/01/13 06:57:24;;;;;;;1.67;1.07;;;8.50;99.90;8.10;99057;;;;551390;255;24153;-79
2023/01/13 06:59:51;;;;;;;1.30;1.20;;;8.60;99.90;8.20;99062;;;;567997;251;24125;-77
2023/01/13 07:02:16;;;;;;;1.40;1.30;;;8.60;99.90;8.20;99055;;;;560724;251;24187;-79
2023/01/13 07:04:45;;;;;;;1.00;1.00;;;8.60;99.90;8.20;99051;;;;561176;251;24121;-77
2023/01/13 07:07:13;;;;;;;1.03;1.03;;;8.60;99.90;8.20;99061;;;;570842;251;24124;-76
2023/01/13 07:09:42;;;;;;;1.17;1.17;;;8.60;99.90;8.20;99048;;;;569314;251;24138;-77
2023/01/13 07:12:10;;;;;;;1.20;1.20;;;8.60;99.90;8.20;99051;;;;572203;248;24108;-78
2023/01/13 07:17:24;;;;;;;1.00;1.00;;;8.60;99.90;8.20;99057;;;;567481;251;24197;-78
2023/01/13 07:19:52;;;;;;;1.43;1.40;;;8.60;99.90;8.20;99059;;;;571390;251;24138;-77
2023/01/13 07:22:20;;;;;;;1.30;1.30;;;8.60;99.90;8.20;99059;;;;571384;251;24198;-77
2023/01/13 07:24:49;;;;;;;1.67;1.57;;;8.60;99.90;8.20;99065;;;;571324;251;24125;-79
2023/01/13 07:27:16;;;;;;;2.90;1.60;;;8.60;99.90;8.20;99069;;;;571098;249;24200;-78
2023/01/13 07:29:44;;;;;;;6.53;1.90;;;8.60;99.90;8.20;99062;;;;571129;251;24129;-78
2023/01/13 07:32:14;;;;;;;1.83;1.30;;;8.60;99.90;8.20;99083;;;;570988;251;24156;-78
2023/01/13 07:34:40;;;;;;;1.60;1.60;;;8.60;99.90;8.20;99085;;;;561102;251;24146;-76
2023/01/13 07:37:08;;;;;;;1.87;1.77;;;8.70;99.90;8.20;99087;;;;571439;251;24154;-76
2023/01/13 07:39:36;;;;;;;2.00;1.90;;;8.60;99.90;8.20;99084;;;;571372;251;24207;-77
2023/01/13 07:44:53;;;;;;;1.60;1.50;;;8.60;99.90;8.20;99100;;;;566931;251;25261;-77
2023/01/13 07:47:22;;;;;;;1.33;1.30;;;8.60;99.90;8.20;99090;;;;561183;251;24155;-79
2023/01/13 07:49:50;;;;;;;1.73;1.63;;;8.60;99.90;8.20;99086;;;;570738;250;24118;-79
2023/01/13 07:52:15;;;;;;;3.53;1.70;;;8.60;99.90;8.20;99076;;;;560331;251;24134;-77
2023/01/13 07:54:42;;;;;;;3.60;1.87;;;8.70;99.90;8.30;99087;;;;560814;251;24182;-77
2023/01/13 07:57:10;;;;;;;2.67;2.20;;;8.70;99.90;8.30;99082;;;;560870;251;24139;-76
2023/01/13 07:59:38;;;;;;;2.93;2.33;;;8.70;99.90;8.30;99084;;;;566273;251;24154;-78
2023/01/13 08:02:07;;;;;;;4.07;2.20;;;8.70;99.90;8.40;99086;;;;560972;251;24132;-78
2023/01/13 08:04:35;;;;;;;2.40;1.90;;;8.70;99.90;8.40;99087;;;;560623;251;24133;-78
2023/01/13 08:07:06;;;;;;;2.20;2.10;;;8.80;99.90;8.40;99095;;;;570640;251;24123;-80
2023/01/13 08:09:31;;;;;;;2.13;1.93;;;8.80;99.90;8.40;99094;;;;560486;251;24123;-79
2023/01/13 08:14:44;;;;;;;1.90;1.73;;;8.90;99.90;8.50;99087;;;;566322;251;24110;-76
2023/01/13 08:17:12;;;;;;;2.00;1.90;;;8.90;99.90;8.50;99087;;;;560577;251;24176;-76
2023/01/13 08:19:41;;;;;;;2.20;2.10;;;8.90;99.90;8.60;99096;;;;570802;251;24164;-77
2023/01/13 08:22:09;;;;;;;2.30;1.93;;;9.00;99.90;8.60;99092;;;;571191;250;24136;-75
2023/01/13 08:24:37;;;;;;;1.90;1.80;;;9.00;99.90;8.60;99100;;;;572148;251;24132;-76
2023/01/13 08:27:05;;;;;;;2.20;2.10;;;9.00;99.90;8.60;99099;;;;571806;248;24122;-77
2023/01/13 08:29:33;;;;;;;2.03;1.93;;;9.00;99.90;8.70;99081;;;;561615;251;24155;-78
2023/01/13 08:32:01;;;;;;;2.10;2.00;;;9.20;99.90;8.80;99089;;;;571443;247;24184;-78
2023/01/13 08:34:29;;;;;;;2.03;1.93;;;9.20;99.90;8.80;99088;;;;561695;251;24162;-78
2023/01/13 08:36:57;;;;;;;2.50;2.30;;;9.20;99.90;8.80;99090;;;;571637;251;24114;-76
2023/01/13 08:39:25;;;;;;;2.60;2.40;;;9.30;99.90;8.90;99091;;;;571597;251;24208;-77
2023/01/13 08:41:57;;;;;;;2.10;1.90;;;9.30;99.90;8.90;99096;;;;571288;251;24171;-77
2023/01/13 08:44:23;;;;;;;4.87;4.37;;;9.30;99.90;8.90;99097;;;;561459;251;24134;-78
2023/01/13 08:46:51;;;;;;;4.93;2.47;;;9.30;99.90;8.90;99107;;;;561007;251;24233;-79
2023/01/13 08:49:23;;;;;;;2.13;2.03;;;9.30;99.90;8.90;99111;;;;561445;251;24179;-77
2023/01/13 08:51:47;;;;;;;1.73;1.63;;;9.40;99.90;8.90;99114;;;;560807;251;24121;-76
2023/01/13 08:54:15;;;;;;;3.13;2.27;;;9.40;99.90;8.90;99114;;;;561180;251;24131;-77
2023/01/13 08:56:43;;;;;;;2.03;1.80;;;9.40;99.90;9.00;99114;;;;561154;251;24124;-77
2023/01/13 08:59:20;;;;;;;1.80;1.70;;;9.40;99.90;9.00;99120;;;;566074;251;25228;-79
2023/01/13 09:01:50;;;;;;;1.80;1.70;;;9.40;99.90;9.00;99137;;;;560659;251;24221;-77
2023/01/13 09:04:17;;;;;;;2.93;1.70;;;9.40;99.90;9.00;99129;;;;560299;251;24114;-78
2023/01/13 09:06:44;;;;;;;1.80;1.70;;;9.50;99.90;9.10;99129;;;;560865;251;24242;-77
2023/01/13 09:09:12;;;;;;;1.37;1.27;;;9.50;99.90;9.10;99124;;;;560763;251;25401;-77
2023/01/13 09:14:26;;;;;;;1.60;1.50;;;9.60;99.90;9.20;99113;;;;566178;251;24111;-79
2023/01/13 09:16:58;;;;;;;2.37;1.77;;;9.60;99.90;9.20;99130;;;;560944;251;24189;-77
2023/01/13 09:19:22;;;;;;;3.07;1.70;;;9.70;99.90;9.30;99126;;;;560506;251;24188;-76
2023/01/13 09:21:51;;;;;;;2.03;1.93;;;9.70;99.90;9.40;99127;;;;570825;251;24218;-78
2023/01/13 09:24:18;;;;;;;1.90;1.80;;;9.80;99.90;9.50;99130;;;;560791;251;24175;-77
2023/01/13 09:26:46;;;;;;;1.87;1.70;;;9.90;99.90;9.60;99120;;;;564536;251;35431;-76
2023/01/13 09:29:14;;;;;;;2.00;1.90;;;10.00;99.90;9.60;99130;;;;560893;251;24171;-78
2023/01/13 09:31:42;;;;;;;1.50;1.40;;;10.00;99.90;9.50;99129;;;;560772;251;24132;-77
2023/01/13 09:37:08;;;;;;;1.63;1.53;;;9.80;99.90;9.40;99146;;;;567699;251;24126;-77
2023/01/13 09:39:36;;;;;;;1.90;1.80;;;9.80;99.90;9.40;99148;;;;561514;251;24135;-77
2023/01/13 09:44:58;;;;;;;2.67;1.67;;;9.70;99.90;9.20;99147;;;;553941;251;24133;-77
2023/01/13 09:47:45;;;;;;;3.13;1.70;;;9.60;99.90;9.20;99141;;;;566969;251;24163;-78
2023/01/13 09:50:49;;;;;;;2.10;1.90;;;9.60;99.90;9.10;99130;;;;551048;251;24214;-77
2023/01/13 09:53:20;;;;;;;2.10;1.90;;;9.50;99.90;9.00;99144;;;;561129;251;24147;-77
2023/01/13 09:55:49;;;;;;;2.50;2.30;;;9.40;99.90;9.00;99131;;;;560155;251;24198;-78
2023/01/13 09:58:16;;;;;;;2.20;2.00;;;9.40;99.90;9.00;99138;;;;570871;247;24184;-77
2023/01/13 10:01:02;;;;;;;2.40;2.20;;;9.40;99.90;9.10;99139;;;;559499;250;24138;-77
2023/01/13 10:03:33;;;;;;;2.07;1.93;;;9.50;99.90;9.20;99141;;;;561016;251;26305;-76
2023/01/13 10:06:29;;;;;;;2.10;2.00;;;9.50;99.90;9.30;99137;;;;561383;251;24143;-78
2023/01/13 10:08:54;;;;;;;2.17;2.00;;;9.60;99.90;9.40;99134;;;;561002;251;24182;-80
2023/01/13 10:14:21;;;;;;;1.90;1.80;;;9.90;99.90;9.60;99140;;;;561719;251;35466;-80
2023/01/13 10:17:07;;;;;;;2.03;1.87;;;10.00;99.90;9.80;99142;;;;561220;251;24121;-78
2023/01/13 10:19:41;;;;;;;1.60;1.50;;;10.20;99.90;9.90;99147;;;;561180;251;24155;-79
2023/01/13 10:22:23;;;;;;;2.07;1.87;;;10.30;99.90;10.00;99144;;;;566145;251;24106;-78
2023/01/13 10:25:03;;;;;;;1.70;1.60;;;10.40;99.90;10.00;99139;;;;562132;251;24191;-81
2023/01/13 10:27:40;;;;;;;1.63;1.53;;;10.50;99.90;10.00;99144;;;;562166;255;24153;-78
2023/01/13 10:30:17;;;;;;;3.00;1.70;;;10.50;99.90;10.10;99136;;;;560584;252;24135;-78
2023/01/13 10:32:50;;;;;;;1.93;1.70;;;10.50;99.90;10.10;99142;;;;551014;256;24179;-76
2023/01/13 10:35:18;;;;;;;2.37;1.90;;;10.60;99.90;10.10;99143;;;;551688;255;24160;-77
2023/01/13 10:37:55;;;;;;;2.27;1.80;;;10.60;99.90;10.10;99147;;;;550240;256;24149;-78
2023/01/13 10:40:24;;;;;;;2.20;2.00;;;10.60;99.90;10.10;99139;;;;552364;255;24176;-77
2023/01/13 10:42:52;;;;;;;1.33;1.23;;;10.60;99.90;10.10;99142;;;;560187;254;24182;-76
2023/01/13 10:45:20;;;;;;;1.50;1.40;;;10.50;99.90;10.00;99119;;;;560067;250;24167;-78
2023/01/13 10:47:51;;;;;;;1.77;1.40;;;10.50;99.90;10.00;99128;;;;562852;251;24114;-76
2023/01/13 10:50:16;;;;;;;1.93;1.43;;;10.40;99.90;10.00;99129;;;;552344;254;24049;-76
2023/01/13 10:52:59;;;;;;;1.80;1.33;;;10.40;99.90;10.10;99120;;;;562067;249;24121;-76
2023/01/13 10:55:27;;;;;;;1.50;1.40;;;10.50;99.90;10.10;99106;;;;562914;251;24154;-77
2023/01/13 10:57:55;;;;;;;2.63;1.20;;;10.50;99.90;10.20;99099;;;;552233;255;24181;-77
2023/01/13 11:00:32;;;;;;;2.40;1.13;;;10.60;99.90;10.30;99100;;;;562555;253;24165;-77
2023/01/13 11:03:21;;;;;;;2.70;1.43;;;10.70;99.90;10.50;99102;;;;552449;254;24124;-78
2023/01/13 11:06:02;;;;;;;1.37;1.30;;;10.80;99.90;10.60;99100;;;;561405;249;35211;-77
2023/01/13 11:08:26;;;;;;;1.30;1.20;;;11.00;99.90;10.70;99096;;;;565972;249;24095;-76
2023/01/13 11:10:56;;;;;;;2.23;1.50;;;11.10;99.90;10.80;99098;;;;563067;249;24102;-77
2023/01/13 11:13:33;;;;;;;1.50;1.40;;;11.30;99.90;10.90;99097;;;;565969;249;24102;-77
2023/01/13 11:16:13;;;;;;;1.93;1.60;;;11.30;99.90;10.90;99107;;;;566033;249;24082;-77
2023/01/13 11:18:50;;;;;;;1.53;1.43;;;11.30;99.90;10.80;99115;;;;565516;249;24114;-77
2023/01/13 11:21:21;;;;;;;1.40;1.30;;;11.30;99.90;10.80;99105;;;;565193;249;24148;-78
2023/01/13 11:23:52;;;;;;;1.00;1.00;;;11.30;99.90;10.90;99098;;;;571604;249;24143;-78
2023/01/13 11:26:22;;;;;;;0.97;0.97;;;11.30;99.90;11.00;99105;;;;564194;249;24105;-78
2023/01/13 11:28:59;;;;;;;1.60;1.10;;;11.40;99.90;11.00;99106;;;;573882;249;24171;-78
2023/01/13 11:31:30;;;;;;;1.20;1.20;;;11.40;99.90;11.00;99114;;;;566071;249;24138;-79
2023/01/13 11:34:20;;;;;;;1.30;1.30;;;11.50;99.90;11.10;99114;;;;562100;249;24087;-77
2023/01/13 11:36:51;;;;;;;1.53;1.43;;;11.50;99.90;11.10;99121;;;;565874;249;24110;-78
2023/01/13 11:39:27;;;;;;;1.10;1.10;;;11.60;99.90;11.10;99108;;;;565367;249;24127;-77
2023/01/13 11:45:37;;;;;;;1.33;1.20;;;11.70;99.90;11.30;99130;;;;562493;249;24107;-78
2023/01/13 11:48:04;;;;;;;1.50;1.40;;;11.60;99.90;11.40;99138;;;;562550;249;24125;-77
2023/01/13 11:50:52;;;;;;;1.70;1.30;;;11.70;99.90;11.40;99124;;;;565262;249;24140;-78
2023/01/13 11:53:37;;;;;;;1.17;1.17;;;11.80;99.90;11.40;99121;;;;565303;249;24130;-77
2023/01/13 11:56:32;;;;;;;3.33;1.30;;;11.80;99.90;11.40;99127;;;;562735;249;24105;-77
2023/01/13 11:59:24;;;;;;;1.43;1.20;;;11.80;99.90;11.30;99121;;;;566594;249;24112;-77
2023/01/13 12:02:10;;;;;;;1.07;1.07;;;11.60;99.90;11.20;99132;;;;566520;249;24089;-76
2023/01/13 12:04:45;;;;;;;1.23;1.17;;;11.50;99.90;11.10;99137;;;;563214;249;24106;-77
2023/01/13 12:07:43;;;;;;;3.30;1.30;;;11.50;99.90;10.90;99132;;;;566416;249;24118;-81
2023/01/13 12:10:08;;;;;;;2.97;1.07;;;11.40;99.90;10.90;99139;;;;566232;249;24139;-77
2023/01/13 12:12:48;;;;;;;1.57;1.20;;;11.30;99.90;10.80;99140;;;;565902;249;24121;-78
2023/01/13 12:15:25;;;;;;;2.97;1.57;;;11.20;99.90;10.80;99149;;;;566175;249;24107;-79
2023/01/13 12:18:21;;;;;;;2.10;1.30;;;11.10;99.90;10.70;99134;;;;565845;249;24128;-79
2023/01/13 12:21:13;;;;;;;1.13;1.13;;;11.10;99.90;10.70;99129;;;;565644;249;24105;-78
2023/01/13 12:23:47;;;;;;;1.53;1.30;;;11.10;99.90;10.60;99135;;;;566241;249;24089;-76
2023/01/13 12:26:17;;;;;;;1.50;1.40;;;11.00;99.90;10.60;99125;;;;565425;249;24156;-79
2023/01/13 12:28:51;;;;;;;1.23;1.23;;;11.00;99.90;10.50;99118;;;;562791;248;24091;-78
2023/01/13 12:31:19;;;;;;;1.33;1.10;;;10.90;99.90;10.40;99107;;;;565741;249;24099;-76
2023/01/13 12:34:08;;;;;;;1.23;1.10;;;10.80;99.90;10.40;99119;;;;565820;249;24095;-79
2023/01/13 12:36:44;;;;;;;5.93;1.43;;;10.80;99.90;10.40;99139;;;;566007;249;25167;-76
2023/01/13 12:39:27;;;;;;;3.33;1.43;;;10.70;99.90;10.40;99151;;;;565736;249;25173;-75
2023/01/13 12:45:05;;;;;;;1.50;1.40;;;10.70;99.90;10.30;99142;;;;574505;249;24149;-77
2023/01/13 12:47:33;;;;;;;2.33;1.33;;;10.70;99.90;10.20;99142;;;;566030;249;24141;-76
2023/01/13 12:50:25;;;;;;;1.37;1.10;;;10.60;99.90;10.20;99135;;;;565971;249;24112;-75
2023/01/13 12:53:00;;;;;;;2.73;1.37;;;10.50;99.90;10.10;99128;;;;563683;249;24185;-76